Time;durP1;ratioP1;P1;durP2;ratioP2;P2;SDS_P1;SDS_P2;PMS_P1;PMS_P2;Temp;Humidity;BMP_temperature;BMP_pressure;BME280_temperature;BME280_humidity;BME280_pressure;Samples;Min_cycle;Max_cycle;Signal;HPM_P1;HPM_P2
2021/09/04 00:01:26;;;;;;;;;;;;;;;21.96;27.98;98151.63;4986176;28;1056;-79
2021/09/04 00:03:52;;;;;;;;;;;;;;;22.17;27.76;98148.25;5002465;28;815;-79
2021/09/04 00:06:17;;;;;;;;;;;;;;;22.19;27.83;98145.00;5002844;28;984;-79
2021/09/04 00:08:43;;;;;;;;;;;;;;;22.28;27.71;98140.28;5002512;28;600;-80
2021/09/04 00:11:08;;;;;;;;;;;;;;;22.16;27.79;98138.16;4986699;28;747;-79
2021/09/04 00:13:35;;;;;;;;;;;;;;;22.24;27.70;98133.91;4985717;28;651;-79
2021/09/04 00:16:03;;;;;;;;;;;;;;;22.25;27.52;98135.50;4970298;28;1974;-79
2021/09/04 00:18:33;;;;;;;;;;;;;;;22.19;27.70;98137.28;4969019;28;919;-79
2021/09/04 00:20:58;;;;;;;;;;;;;;;22.24;27.71;98136.75;5002883;28;1052;-79
2021/09/04 00:23:24;;;;;;;;;;;;;;;22.02;28.18;98142.16;5001661;28;855;-79
2021/09/04 00:25:49;;;;;;;;;;;;;;;22.20;27.84;98133.19;5002978;28;847;-79
2021/09/04 00:28:14;;;;;;;;;;;;;;;22.32;27.78;98149.47;4985036;28;683;-79
2021/09/04 00:30:40;;;;;;;;;;;;;;;22.15;28.03;98153.59;5002805;28;616;-79
2021/09/04 00:33:05;;;;;;;;;;;;;;;22.33;27.71;98145.41;5002245;28;647;-79
2021/09/04 00:35:31;;;;;;;;;;;;;;;22.04;27.97;98145.34;5002155;28;1996;-79
2021/09/04 00:37:56;;;;;;;;;;;;;;;22.21;27.88;98131.97;5002061;28;916;-79
2021/09/04 00:40:22;;;;;;;;;;;;;;;22.09;27.95;98135.50;5002396;28;961;-79
2021/09/04 00:42:47;;;;;;;;;;;;;;;22.14;27.76;98135.00;4985583;28;699;-79
2021/09/04 00:45:13;;;;;;;;;;;;;;;22.14;27.71;98129.31;4985343;28;666;-79
2021/09/04 00:47:57;;;;;;;;;;;;;;;22.19;27.65;98128.00;5002646;28;738;-79
2021/09/04 00:50:23;;;;;;;;;;;;;;;22.17;27.89;98122.75;5001938;28;883;-79
2021/09/04 00:52:49;;;;;;;;;;;;;;;22.08;27.88;98116.91;4968380;28;860;-79
2021/09/04 00:55:15;;;;;;;;;;;;;;;22.20;27.75;98107.69;5002564;28;1097;-77
2021/09/04 00:57:40;;;;;;;;;;;;;;;22.12;27.98;98114.78;4985340;28;1914;-78
2021/09/04 01:00:07;;;;;;;;;;;;;;;22.07;28.02;98115.31;5002084;28;553;-79
2021/09/04 01:02:32;;;;;;;;;;;;;;;22.14;27.73;98115.16;4985665;28;620;-79
2021/09/04 01:04:58;;;;;;;;;;;;;;;22.12;27.73;98111.94;5001484;28;940;-79
2021/09/04 01:07:24;;;;;;;;;;;;;;;22.03;27.83;98103.28;4985470;28;947;-79
2021/09/04 01:09:49;;;;;;;;;;;;;;;22.11;27.82;98104.69;4985215;28;966;-79
2021/09/04 01:12:15;;;;;;;;;;;;;;;22.25;27.50;98106.34;5002563;28;627;-79
2021/09/04 01:14:40;;;;;;;;;;;;;;;22.01;28.05;98100.88;4985382;28;684;-79
2021/09/04 01:17:06;;;;;;;;;;;;;;;22.29;27.52;98098.56;4984968;28;1967;-79
2021/09/04 01:19:32;;;;;;;;;;;;;;;22.09;28.05;98090.16;4968777;28;1433;-80
2021/09/04 01:21:57;;;;;;;;;;;;;;;22.11;27.99;98087.69;4985589;28;1028;-79
2021/09/04 01:24:23;;;;;;;;;;;;;;;22.04;28.03;98094.34;4984910;28;946;-79
2021/09/04 01:26:48;;;;;;;;;;;;;;;22.23;27.54;98094.69;4985411;28;663;-79
2021/09/04 01:29:13;;;;;;;;;;;;;;;22.26;27.45;98102.28;4985077;28;646;-79
2021/09/04 01:31:39;;;;;;;;;;;;;;;22.20;27.87;98107.69;5002437;28;648;-80
2021/09/04 01:34:05;;;;;;;;;;;;;;;22.12;27.91;98103.44;4986278;28;994;-79
2021/09/04 01:36:31;;;;;;;;;;;;;;;22.04;27.95;98096.38;5005805;28;1944;-79
2021/09/04 01:38:57;;;;;;;;;;;;;;;22.09;27.76;98096.63;4988364;28;906;-79
2021/09/04 01:41:22;;;;;;;;;;;;;;;22.21;27.85;98109.28;4973081;28;890;-79
2021/09/04 01:43:48;;;;;;;;;;;;;;;22.09;27.76;98101.50;4988657;28;1255;-79
2021/09/04 01:46:14;;;;;;;;;;;;;;;22.13;27.86;98102.22;5006262;28;703;-79
2021/09/04 01:48:39;;;;;;;;;;;;;;;22.22;27.76;98099.53;4987925;28;919;-80
2021/09/04 01:51:05;;;;;;;;;;;;;;;22.21;27.60;98100.78;5006172;28;883;-79
2021/09/04 01:53:30;;;;;;;;;;;;;;;22.15;27.81;98105.41;5004988;28;883;-78
2021/09/04 01:55:55;;;;;;;;;;;;;;;22.16;27.65;98104.16;5005855;28;1958;-79
2021/09/04 01:58:21;;;;;;;;;;;;;;;22.07;27.76;98099.13;4988460;28;777;-80
2021/09/04 02:00:46;;;;;;;;;;;;;;;22.06;27.74;98096.72;5005375;28;839;-79
2021/09/04 02:03:12;;;;;;;;;;;;;;;22.08;28.07;98094.25;5004657;28;911;-79
2021/09/04 02:05:37;;;;;;;;;;;;;;;22.07;27.84;98092.63;5005115;28;1095;-79
2021/09/04 02:08:03;;;;;;;;;;;;;;;22.18;27.66;98098.06;4988106;28;633;-80
2021/09/04 02:10:28;;;;;;;;;;;;;;;21.97;28.18;98088.06;5005198;28;645;-79
2021/09/04 02:12:54;;;;;;;;;;;;;;;22.07;27.80;98095.47;4988028;28;905;-79
2021/09/04 02:15:19;;;;;;;;;;;;;;;21.94;28.02;98100.28;4972094;28;724;-79
2021/09/04 02:17:45;;;;;;;;;;;;;;;22.12;27.65;98094.94;5005113;28;1910;-79
2021/09/04 02:20:12;;;;;;;;;;;;;;;22.10;27.82;98083.25;4988102;28;922;-79
2021/09/04 02:22:38;;;;;;;;;;;;;;;22.07;27.66;98076.44;4988040;28;860;-79
2021/09/04 02:25:04;;;;;;;;;;;;;;;22.08;27.92;98072.38;4972103;28;946;-79
2021/09/04 02:27:32;;;;;;;;;;;;;;;22.18;27.88;98076.19;4971776;28;1474;-79
2021/09/04 02:29:58;;;;;;;;;;;;;;;22.10;27.68;98074.75;4971151;28;947;-79
2021/09/04 02:32:24;;;;;;;;;;;;;;;22.05;27.70;98066.78;4988269;28;1002;-79
2021/09/04 02:34:49;;;;;;;;;;;;;;;22.06;28.02;98068.38;5004334;28;977;-79
2021/09/04 02:37:16;;;;;;;;;;;;;;;22.19;27.51;98063.59;4987629;28;1964;-79
2021/09/04 02:39:44;;;;;;;;;;;;;;;22.26;27.29;98069.06;4971428;28;1499;-80
2021/09/04 02:42:11;;;;;;;;;;;;;;;22.14;27.78;98064.16;4988654;28;611;-80
2021/09/04 02:44:38;;;;;;;;;;;;;;;21.92;27.85;98054.63;4987915;28;631;-80
2021/09/04 02:47:03;;;;;;;;;;;;;;;22.02;27.95;98056.34;5003836;28;1001;-79
2021/09/04 02:49:29;;;;;;;;;;;;;;;22.16;27.52;98055.97;5003660;28;955;-79
2021/09/04 02:51:55;;;;;;;;;;;;;;;22.12;27.53;98052.44;5004235;28;938;-79
2021/09/04 02:54:20;;;;;;;;;;;;;;;22.13;27.91;98056.91;5003811;28;687;-79
2021/09/04 02:56:46;;;;;;;;;;;;;;;22.16;27.46;98050.31;4987044;28;1883;-79
2021/09/04 02:59:12;;;;;;;;;;;;;;;22.13;27.43;98054.06;4986814;28;886;-79
2021/09/04 03:01:38;;;;;;;;;;;;;;;22.21;27.44;98052.59;5004180;28;980;-80
2021/09/04 03:04:04;;;;;;;;;;;;;;;22.14;27.61;98049.19;4986809;28;867;-79
2021/09/04 03:06:30;;;;;;;;;;;;;;;22.12;27.71;98045.97;5003688;28;1098;-79
2021/09/04 03:08:57;;;;;;;;;;;;;;;22.07;27.93;98035.97;5003206;28;675;-79
2021/09/04 03:11:22;;;;;;;;;;;;;;;22.02;27.65;98039.34;5003581;28;624;-79
2021/09/04 03:13:52;;;;;;;;;;;;;;;22.03;27.79;98035.28;4986679;28;604;-79
2021/09/04 03:16:17;;;;;;;;;;;;;;;21.98;27.85;98030.97;4970251;28;1956;-79
2021/09/04 03:18:43;;;;;;;;;;;;;;;22.08;27.60;98034.75;5003174;28;891;-79
2021/09/04 03:21:09;;;;;;;;;;;;;;;22.24;27.30;98029.03;5004027;28;875;-80
2021/09/04 03:23:35;;;;;;;;;;;;;;;22.25;27.27;98041.97;5002880;28;729;-79
2021/09/04 03:26:01;;;;;;;;;;;;;;;22.06;27.62;98029.50;4987272;28;683;-79
2021/09/04 03:28:26;;;;;;;;;;;;;;;22.25;27.34;98041.97;5003043;28;663;-79
2021/09/04 03:30:52;;;;;;;;;;;;;;;22.24;27.64;98034.72;5003128;28;985;-79
2021/09/04 03:33:19;;;;;;;;;;;;;;;22.06;27.77;98034.38;5002496;28;862;-79
2021/09/04 03:35:45;;;;;;;;;;;;;;;22.11;27.71;98042.34;5003295;28;1962;-79
2021/09/04 03:38:10;;;;;;;;;;;;;;;22.02;27.75;98045.81;4986244;28;886;-79
2021/09/04 03:40:37;;;;;;;;;;;;;;;22.09;27.46;98051.28;4986734;28;752;-79
2021/09/04 03:43:03;;;;;;;;;;;;;;;22.11;27.71;98050.84;5002727;28;666;-79
2021/09/04 03:45:30;;;;;;;;;;;;;;;21.96;27.79;98052.47;5006606;28;1240;-79
2021/09/04 03:47:56;;;;;;;;;;;;;;;22.05;27.66;98061.13;5022385;28;1016;-79
2021/09/04 03:50:22;;;;;;;;;;;;;;;22.01;27.58;98068.91;5005660;28;862;-80
2021/09/04 03:52:47;;;;;;;;;;;;;;;22.03;27.76;98041.75;5005244;28;914;-79
2021/09/04 03:55:13;;;;;;;;;;;;;;;22.12;27.46;98037.47;5022551;28;634;-79
2021/09/04 03:57:39;;;;;;;;;;;;;;;22.11;27.61;98042.34;5021657;28;1886;-80
2021/09/04 04:00:06;;;;;;;;;;;;;;;22.08;27.56;98049.69;5008920;28;1215;-79
2021/09/04 04:02:37;;;;;;;;;;;;;;;22.20;27.41;98045.34;4986788;28;1374;-79
2021/09/04 04:05:03;;;;;;;;;;;;;;;22.10;27.42;98029.41;4985179;28;1531;-79
2021/09/04 04:07:29;;;;;;;;;;;;;;;22.06;27.52;98023.81;4985672;28;880;-79
2021/09/04 04:09:55;;;;;;;;;;;;;;;22.02;27.64;98028.81;5002691;28;698;-80
2021/09/04 04:12:20;;;;;;;;;;;;;;;21.94;27.81;98029.47;5002468;28;970;-80
2021/09/04 04:14:46;;;;;;;;;;;;;;;21.99;27.88;98026.09;4985274;28;871;-80
2021/09/04 04:17:12;;;;;;;;;;;;;;;22.03;27.92;98036.06;5002782;28;1887;-79
2021/09/04 04:19:37;;;;;;;;;;;;;;;21.99;27.73;98035.38;4985597;28;624;-79
2021/09/04 04:22:03;;;;;;;;;;;;;;;22.22;27.65;98031.50;5002703;28;682;-78
2021/09/04 04:24:28;;;;;;;;;;;;;;;22.01;28.23;98049.09;5002294;28;737;-79
2021/09/04 04:26:54;;;;;;;;;;;;;;;21.79;28.27;98061.00;4969391;28;1176;-79
2021/09/04 04:29:19;;;;;;;;;;;;;;;22.16;28.12;98055.19;5003201;28;1302;-78
2021/09/04 04:31:46;;;;;;;;;;;;;;;22.18;27.60;98064.06;4969852;28;920;-79
2021/09/04 04:34:12;;;;;;;;;;;;;;;22.05;28.18;98063.97;4968503;28;1139;-79
2021/09/04 04:36:39;;;;;;;;;;;;;;;22.10;27.81;98063.41;5002470;28;1906;-80
2021/09/04 04:39:04;;;;;;;;;;;;;;;21.93;28.26;98064.69;4985159;28;675;-79
2021/09/04 04:41:30;;;;;;;;;;;;;;;22.05;27.87;98069.63;4984921;28;969;-79
2021/09/04 04:43:56;;;;;;;;;;;;;;;22.02;28.24;98056.34;4985606;28;1247;-79
2021/09/04 04:46:22;;;;;;;;;;;;;;;22.15;27.84;98057.22;5002309;28;1267;-79
2021/09/04 04:48:47;;;;;;;;;;;;;;;22.05;27.91;98055.44;4984853;28;648;-79
2021/09/04 04:51:14;;;;;;;;;;;;;;;22.02;28.00;98051.50;4985825;28;623;-79
2021/09/04 04:53:41;;;;;;;;;;;;;;;22.04;27.84;98059.53;5001502;28;677;-79
2021/09/04 04:56:09;;;;;;;;;;;;;;;22.07;27.75;98050.13;4984621;28;1977;-79
2021/09/04 04:58:35;;;;;;;;;;;;;;;22.23;27.80;98061.47;5001140;28;840;-79
2021/09/04 05:01:00;;;;;;;;;;;;;;;22.03;28.07;98057.94;5002446;28;1024;-79
2021/09/04 05:03:29;;;;;;;;;;;;;;;22.04;28.13;98053.88;5001452;28;659;-79
2021/09/04 05:06:04;;;;;;;;;;;;;;;22.18;27.75;98055.56;4953127;28;1001;-79
2021/09/04 05:08:30;;;;;;;;;;;;;;;22.03;28.01;98055.13;4947112;29;647;-79
2021/09/04 05:10:56;;;;;;;;;;;;;;;22.20;27.75;98058.72;4967143;28;960;-79
2021/09/04 05:13:22;;;;;;;;;;;;;;;22.02;28.22;98056.34;4966565;28;893;-79
2021/09/04 05:15:49;;;;;;;;;;;;;;;22.06;28.09;98060.66;4966485;28;1884;-79
2021/09/04 05:18:14;;;;;;;;;;;;;;;22.20;27.71;98053.84;4966016;29;649;-79
2021/09/04 05:20:43;;;;;;;;;;;;;;;22.08;28.16;98054.56;4950200;29;803;-79
2021/09/04 05:23:09;;;;;;;;;;;;;;;22.20;28.10;98051.00;4967538;28;1358;-79
2021/09/04 05:25:34;;;;;;;;;;;;;;;22.29;28.01;98037.00;4975566;28;1298;-79
2021/09/04 05:28:00;;;;;;;;;;;;;;;22.19;27.99;98043.75;4985597;28;909;-79
2021/09/04 05:30:25;;;;;;;;;;;;;;;22.02;28.29;98025.16;4986048;28;821;-79
2021/09/04 05:32:51;;;;;;;;;;;;;;;22.15;28.07;98034.56;4986027;28;839;-79
2021/09/04 05:35:16;;;;;;;;;;;;;;;21.97;28.26;98032.19;4985856;28;654;-79
2021/09/04 05:37:42;;;;;;;;;;;;;;;22.03;28.09;98043.78;4986072;28;1902;-79
2021/09/04 05:40:08;;;;;;;;;;;;;;;22.19;28.12;98040.94;4985436;28;947;-79
2021/09/04 05:42:33;;;;;;;;;;;;;;;21.98;28.37;98033.00;4985770;28;914;-79
2021/09/04 05:44:59;;;;;;;;;;;;;;;21.93;28.41;98036.38;4985635;28;878;-79
2021/09/04 05:47:24;;;;;;;;;;;;;;;22.11;28.20;98036.69;4986049;28;698;-79
2021/09/04 05:49:50;;;;;;;;;;;;;;;22.14;28.00;98046.34;4984228;28;855;-79
2021/09/04 05:52:15;;;;;;;;;;;;;;;22.22;28.04;98044.88;4982601;28;1405;-79
2021/09/04 05:54:41;;;;;;;;;;;;;;;22.10;28.32;98040.75;4965860;29;997;-79
2021/09/04 05:57:06;;;;;;;;;;;;;;;22.09;28.15;98033.50;4965571;29;1891;-79
2021/09/04 05:59:32;;;;;;;;;;;;;;;22.16;28.05;98038.97;4965724;28;1357;-79
2021/09/04 06:01:57;;;;;;;;;;;;;;;22.04;28.36;98039.69;4965649;29;584;-79
2021/09/04 06:04:22;;;;;;;;;;;;;;;21.93;28.53;98042.84;4965471;28;992;-79
2021/09/04 06:06:48;;;;;;;;;;;;;;;22.03;28.23;98046.63;5006292;28;1311;-79
2021/09/04 06:09:13;;;;;;;;;;;;;;;22.17;28.09;98057.56;5004277;28;1981;-79
2021/09/04 06:11:39;;;;;;;;;;;;;;;22.09;28.29;98056.16;4999003;28;1378;-79
2021/09/04 06:14:05;;;;;;;;;;;;;;;22.14;28.20;98057.69;5023937;28;863;-79
2021/09/04 06:16:31;;;;;;;;;;;;;;;22.19;28.08;98066.44;5023208;28;1914;-79
2021/09/04 06:18:56;;;;;;;;;;;;;;;22.01;28.36;98066.09;5021154;28;1338;-79
2021/09/04 06:21:22;;;;;;;;;;;;;;;22.03;28.21;98057.94;4987405;28;970;-79
2021/09/04 06:23:47;;;;;;;;;;;;;;;22.06;28.47;98057.03;5003657;28;1065;-79
2021/09/04 06:26:13;;;;;;;;;;;;;;;22.12;28.13;98055.28;5004498;28;830;-79
2021/09/04 06:28:38;;;;;;;;;;;;;;;21.96;28.32;98052.47;5003853;28;921;-79
2021/09/04 06:31:04;;;;;;;;;;;;;;;21.92;28.59;98057.44;5004820;28;634;-79
2021/09/04 06:33:29;;;;;;;;;;;;;;;21.94;28.69;98049.28;4993037;28;1303;-78
2021/09/04 06:35:55;;;;;;;;;;;;;;;21.99;28.49;98062.91;5024490;28;1902;-79
2021/09/04 06:38:20;;;;;;;;;;;;;;;22.05;28.16;98058.28;5022335;28;1286;-79
2021/09/04 06:40:46;;;;;;;;;;;;;;;22.14;28.34;98069.81;5007808;28;1334;-80
2021/09/04 06:43:12;;;;;;;;;;;;;;;22.08;28.03;98060.25;4986518;28;862;-79
2021/09/04 06:45:37;;;;;;;;;;;;;;;22.18;28.02;98073.34;5014110;28;1334;-79
2021/09/04 06:48:03;;;;;;;;;;;;;;;22.15;28.28;98070.59;5008540;28;1278;-79
2021/09/04 06:50:28;;;;;;;;;;;;;;;22.15;28.17;98071.41;4986637;28;1806;-79
2021/09/04 06:52:54;;;;;;;;;;;;;;;22.10;28.12;98069.91;5020462;28;1298;-79
2021/09/04 06:55:19;;;;;;;;;;;;;;;21.99;28.31;98074.25;4987573;28;1318;-80
2021/09/04 06:57:45;;;;;;;;;;;;;;;21.96;28.63;98075.91;5019972;28;1988;-79
2021/09/04 07:00:11;;;;;;;;;;;;;;;22.15;28.18;98079.91;5006785;28;1538;-79
2021/09/04 07:02:36;;;;;;;;;;;;;;;22.27;27.85;98079.16;5023325;28;668;-79
2021/09/04 07:05:02;;;;;;;;;;;;;;;22.14;28.40;98083.97;4998966;28;1295;-79
2021/09/04 07:07:28;;;;;;;;;;;;;;;22.08;28.26;98074.41;4986805;28;856;-80
2021/09/04 07:09:54;;;;;;;;;;;;;;;22.03;28.63;98069.28;4985235;28;855;-78
2021/09/04 07:12:19;;;;;;;;;;;;;;;22.15;28.40;98077.06;5002866;28;941;-78
2021/09/04 07:14:45;;;;;;;;;;;;;;;22.20;28.11;98075.72;5002595;28;667;-78
2021/09/04 07:17:10;;;;;;;;;;;;;;;22.04;28.70;98073.69;5002601;28;1906;-78
2021/09/04 07:19:36;;;;;;;;;;;;;;;22.14;28.41;98086.81;4985820;28;680;-77
2021/09/04 07:22:01;;;;;;;;;;;;;;;22.10;28.50;98080.41;5002119;28;925;-77
2021/09/04 07:24:27;;;;;;;;;;;;;;;22.20;28.23;98089.91;4985296;28;912;-77
2021/09/04 07:26:52;;;;;;;;;;;;;;;22.12;28.32;98086.44;5002686;28;1071;-78
2021/09/04 07:29:18;;;;;;;;;;;;;;;22.07;28.75;98092.63;5002287;28;639;-77
2021/09/04 07:31:44;;;;;;;;;;;;;;;22.11;28.50;98093.38;5001562;28;651;-78
2021/09/04 07:34:09;;;;;;;;;;;;;;;22.06;28.47;98085.38;5002261;28;643;-77
2021/09/04 07:36:35;;;;;;;;;;;;;;;22.02;28.79;98084.66;5001899;28;1969;-77
2021/09/04 07:39:00;;;;;;;;;;;;;;;22.07;28.59;98090.63;5001821;28;953;-78
2021/09/04 07:41:26;;;;;;;;;;;;;;;22.15;28.55;98093.28;5002372;28;1067;-78
2021/09/04 07:43:51;;;;;;;;;;;;;;;22.01;28.83;98083.88;5002606;28;615;-78
2021/09/04 07:46:16;;;;;;;;;;;;;;;21.97;28.93;98082.41;5003891;28;1326;-79
2021/09/04 07:48:42;;;;;;;;;;;;;;;22.10;28.67;98086.09;4986672;28;1370;-79
2021/09/04 07:51:07;;;;;;;;;;;;;;;22.17;28.68;98082.28;5003041;28;981;-79
2021/09/04 07:53:33;;;;;;;;;;;;;;;22.22;28.21;98088.19;5002171;28;955;-79
2021/09/04 07:55:58;;;;;;;;;;;;;;;22.14;28.39;98092.47;5003344;28;1879;-79
2021/09/04 07:58:24;;;;;;;;;;;;;;;22.18;28.46;98084.69;4995346;28;1406;-79
2021/09/04 08:00:49;;;;;;;;;;;;;;;22.23;28.64;98084.13;5022608;28;604;-79
2021/09/04 08:03:15;;;;;;;;;;;;;;;22.16;28.36;98083.53;5022053;28;683;-79
2021/09/04 08:05:40;;;;;;;;;;;;;;;22.09;28.54;98084.50;5022033;28;979;-79
2021/09/04 08:08:06;;;;;;;;;;;;;;;22.06;28.88;98079.72;5005493;28;1373;-79
2021/09/04 08:10:31;;;;;;;;;;;;;;;22.18;28.69;98081.84;4985874;28;828;-79
2021/09/04 08:12:57;;;;;;;;;;;;;;;22.19;28.73;98074.94;5002583;28;1449;-79
2021/09/04 08:15:22;;;;;;;;;;;;;;;22.16;28.30;98072.97;5002361;28;687;-79
2021/09/04 08:17:48;;;;;;;;;;;;;;;22.02;28.63;98067.66;4985425;28;1910;-79
2021/09/04 08:20:13;;;;;;;;;;;;;;;22.18;28.51;98070.50;4985002;28;1071;-79
2021/09/04 08:22:39;;;;;;;;;;;;;;;22.20;28.36;98067.22;4995473;28;1385;-79
2021/09/04 08:25:04;;;;;;;;;;;;;;;22.18;28.40;98070.50;5021702;28;1044;-79
2021/09/04 08:27:30;;;;;;;;;;;;;;;22.04;28.84;98070.88;5004029;28;1405;-79
2021/09/04 08:29:55;;;;;;;;;;;;;;;22.04;28.89;98053.88;5004818;28;719;-79
2021/09/04 08:32:21;;;;;;;;;;;;;;;22.20;28.61;98061.56;5022358;28;771;-79
2021/09/04 08:34:46;;;;;;;;;;;;;;;22.24;28.35;98056.59;5021220;28;1282;-79
2021/09/04 08:37:13;;;;;;;;;;;;;;;22.17;28.73;98057.56;5008528;28;1914;-79
2021/09/04 08:39:39;;;;;;;;;;;;;;;22.16;28.43;98050.31;5001533;28;1000;-79
2021/09/04 08:42:04;;;;;;;;;;;;;;;22.08;28.62;98046.06;5002035;28;746;-79
2021/09/04 08:44:30;;;;;;;;;;;;;;;22.05;28.91;98044.13;4968623;28;713;-79
2021/09/04 08:46:55;;;;;;;;;;;;;;;22.19;28.84;98048.63;5002166;28;739;-79
2021/09/04 08:49:21;;;;;;;;;;;;;;;22.16;28.81;98033.31;5001191;28;1139;-79
2021/09/04 08:51:46;;;;;;;;;;;;;;;22.29;28.34;98036.19;4985219;28;860;-79
2021/09/04 08:54:12;;;;;;;;;;;;;;;22.37;28.20;98037.56;4984606;28;918;-79
2021/09/04 08:56:38;;;;;;;;;;;;;;;22.34;28.49;98039.28;4985596;28;1931;-79
2021/09/04 08:59:03;;;;;;;;;;;;;;;22.19;28.52;98043.75;4984985;28;662;-79
2021/09/04 09:01:29;;;;;;;;;;;;;;;22.25;28.75;98050.47;5002201;28;603;-79
2021/09/04 09:03:55;;;;;;;;;;;;;;;22.19;28.76;98046.59;4984548;28;1072;-79
2021/09/04 09:06:25;;;;;;;;;;;;;;;22.25;28.70;98047.63;4985245;28;1131;-79
2021/09/04 09:08:50;;;;;;;;;;;;;;;22.15;28.68;98040.22;5001532;28;994;-79
2021/09/04 09:11:16;;;;;;;;;;;;;;;22.17;28.96;98043.41;4985121;28;612;-79
2021/09/04 09:13:48;;;;;;;;;;;;;;;22.24;28.83;98028.25;5001575;28;648;-79
2021/09/04 09:16:14;;;;;;;;;;;;;;;22.27;28.53;98047.97;4985063;28;1906;-79
2021/09/04 09:18:40;;;;;;;;;;;;;;;22.28;28.73;98052.41;5001427;28;962;-79
2021/09/04 09:21:05;;;;;;;;;;;;;;;22.28;28.78;98058.09;4968265;28;926;-79
2021/09/04 09:23:31;;;;;;;;;;;;;;;22.22;28.94;98054.19;5001433;28;914;-79
2021/09/04 09:26:04;;;;;;;;;;;;;;;22.36;28.69;98048.13;4984902;28;994;-79
2021/09/04 09:28:30;;;;;;;;;;;;;;;22.12;29.00;98052.44;4968084;28;1228;-79
2021/09/04 09:31:00;;;;;;;;;;;;;;;22.26;28.46;98071.09;5002034;28;691;-78
2021/09/04 09:33:28;;;;;;;;;;;;;;;22.15;28.91;98054.41;4984739;28;895;-78
2021/09/04 09:35:55;;;;;;;;;;;;;;;22.16;28.88;98060.84;4985245;28;1906;-79
2021/09/04 09:38:30;;;;;;;;;;;;;;;22.09;29.06;98064.66;4984300;28;887;-79
2021/09/04 09:40:58;;;;;;;;;;;;;;;22.16;28.81;98061.66;4985122;28;715;-79
2021/09/04 09:43:24;;;;;;;;;;;;;;;22.30;28.78;98055.59;5000990;28;631;-79
2021/09/04 09:45:53;;;;;;;;;;;;;;;22.18;28.80;98052.72;4987772;28;1235;-79
2021/09/04 09:48:20;;;;;;;;;;;;;;;22.22;28.58;98048.50;5002918;28;975;-79
2021/09/04 09:50:45;;;;;;;;;;;;;;;22.21;28.72;98040.47;5018482;28;1329;-79
2021/09/04 09:53:11;;;;;;;;;;;;;;;22.24;28.66;98045.25;5020715;28;877;-79
2021/09/04 09:55:36;;;;;;;;;;;;;;;22.19;29.00;98043.75;5006802;28;683;-79
2021/09/04 09:58:02;;;;;;;;;;;;;;;22.29;28.66;98042.66;5006180;28;1926;-79
2021/09/04 10:00:28;;;;;;;;;;;;;;;22.14;28.99;98041.47;5004836;28;659;-79
2021/09/04 10:02:58;;;;;;;;;;;;;;;22.26;28.95;98035.03;4987010;28;941;-79
2021/09/04 10:05:25;;;;;;;;;;;;;;;22.43;28.68;98041.44;5004677;28;1237;-79
2021/09/04 10:07:53;;;;;;;;;;;;;;;22.43;28.34;98032.13;5000011;28;1409;-79
2021/09/04 10:10:20;;;;;;;;;;;;;;;22.23;28.95;98033.13;5007983;28;662;-79
2021/09/04 10:12:45;;;;;;;;;;;;;;;22.26;28.96;98032.22;5007664;28;682;-79
2021/09/04 10:15:10;;;;;;;;;;;;;;;22.26;28.99;98017.25;4990245;28;1422;-78
2021/09/04 10:17:37;;;;;;;;;;;;;;;22.23;29.03;98026.66;5001026;28;1910;-79
2021/09/04 10:20:03;;;;;;;;;;;;;;;22.19;29.09;98015.41;5004002;28;843;-79
2021/09/04 10:22:29;;;;;;;;;;;;;;;22.27;28.95;98022.44;5004259;28;979;-80
2021/09/04 10:24:54;;;;;;;;;;;;;;;22.22;28.89;98030.72;5004279;28;852;-79
2021/09/04 10:27:30;;;;;;;;;;;;;;;22.19;29.11;98026.75;5005042;28;1326;-78
2021/09/04 10:29:55;;;;;;;;;;;;;;;22.24;29.03;98031.88;5023102;28;636;-79
2021/09/04 10:32:21;;;;;;;;;;;;;;;22.31;28.85;98028.81;5024208;28;679;-79
2021/09/04 10:34:47;;;;;;;;;;;;;;;22.31;28.60;98045.84;5023435;28;892;-79
2021/09/04 10:37:13;;;;;;;;;;;;;;;22.28;28.85;98041.06;5006063;28;1992;-79
2021/09/04 10:40:17;;;;;;;;;;;;;;;22.21;28.76;98044.09;4990137;28;1437;-79
2021/09/04 10:42:43;;;;;;;;;;;;;;;22.32;28.55;98041.75;4944967;29;1268;-79
2021/09/04 10:45:12;;;;;;;;;;;;;;;22.19;28.90;98045.81;4928638;29;628;-79
2021/09/04 10:47:57;;;;;;;;;;;;;;;22.31;28.92;98045.84;4956818;28;1004;-79
2021/09/04 10:50:24;;;;;;;;;;;;;;;22.54;28.58;98046.81;5022089;28;1385;-79
2021/09/04 10:52:49;;;;;;;;;;;;;;;22.35;28.62;98043.69;5005978;28;929;-79
2021/09/04 10:55:21;;;;;;;;;;;;;;;22.34;28.73;98039.28;5023298;28;922;-79
2021/09/04 10:57:47;;;;;;;;;;;;;;;22.27;28.68;98050.00;5023489;28;1975;-79
2021/09/04 11:00:16;;;;;;;;;;;;;;;22.35;28.75;98049.38;4991407;28;1759;-77
2021/09/04 11:02:42;;;;;;;;;;;;;;;22.17;28.99;98046.22;5003060;28;651;-78
2021/09/04 11:05:26;;;;;;;;;;;;;;;22.30;28.66;98049.91;5001912;28;1145;-78
2021/09/04 11:08:00;;;;;;;;;;;;;;;22.19;28.72;98046.59;4990921;28;1437;-77
2021/09/04 11:10:26;;;;;;;;;;;;;;;22.29;28.71;98053.22;5014061;28;1271;-78
2021/09/04 11:13:03;;;;;;;;;;;;;;;22.31;28.82;98057.16;5002583;28;666;-77
2021/09/04 11:15:28;;;;;;;;;;;;;;;22.20;29.09;98051.00;5002442;28;659;-77
2021/09/04 11:17:54;;;;;;;;;;;;;;;22.19;28.76;98042.97;5002352;28;1907;-79
2021/09/04 11:20:22;;;;;;;;;;;;;;;22.16;29.10;98038.19;5004520;28;1239;-79
2021/09/04 11:22:54;;;;;;;;;;;;;;;22.05;29.14;98032.78;5020281;28;1319;-79
2021/09/04 11:25:20;;;;;;;;;;;;;;;22.22;29.02;98042.06;5022700;28;987;-79
2021/09/04 11:27:45;;;;;;;;;;;;;;;22.27;28.93;98030.97;5004813;28;855;-79
2021/09/04 11:30:14;;;;;;;;;;;;;;;22.28;28.93;98028.94;5022304;28;635;-79
2021/09/04 11:32:40;;;;;;;;;;;;;;;22.49;28.28;98019.81;5004836;28;883;-79
2021/09/04 11:35:06;;;;;;;;;;;;;;;22.35;28.84;98018.19;5021871;28;1068;-78
2021/09/04 11:37:34;;;;;;;;;;;;;;;22.34;28.81;98016.59;5022206;28;1898;-77
2021/09/04 11:40:12;;;;;;;;;;;;;;;22.35;28.47;98025.91;5005018;28;1006;-79
2021/09/04 11:42:44;;;;;;;;;;;;;;;22.11;29.14;98008.34;5022402;28;607;-79
2021/09/04 11:45:11;;;;;;;;;;;;;;;22.18;28.97;98016.66;5022006;28;643;-79
2021/09/04 11:47:48;;;;;;;;;;;;;;;22.20;29.15;98017.00;5022440;28;611;-79
2021/09/04 11:50:21;;;;;;;;;;;;;;;22.18;29.09;97996.81;5021857;28;1088;-79
2021/09/04 11:52:46;;;;;;;;;;;;;;;22.07;29.13;97999.13;5004357;28;833;-79
2021/09/04 11:55:17;;;;;;;;;;;;;;;22.29;28.73;97997.31;5021663;28;1103;-79
2021/09/04 11:57:43;;;;;;;;;;;;;;;22.38;28.78;97996.63;5004854;28;1898;-79
2021/09/04 12:00:10;;;;;;;;;;;;;;;22.25;29.04;98002.28;5004938;28;629;-79
2021/09/04 12:02:57;;;;;;;;;;;;;;;22.34;28.81;98010.94;5022070;28;730;-79
2021/09/04 12:05:23;;;;;;;;;;;;;;;22.24;29.08;98000.69;5004483;28;989;-79
2021/09/04 12:07:49;;;;;;;;;;;;;;;22.23;29.01;97993.44;5021276;28;850;-79
2021/09/04 12:10:16;;;;;;;;;;;;;;;22.30;28.98;97998.88;5004949;28;585;-79
2021/09/04 12:12:43;;;;;;;;;;;;;;;22.30;28.91;97986.75;5021530;28;754;-79
2021/09/04 12:15:12;;;;;;;;;;;;;;;22.43;28.62;98015.13;5003840;28;1081;-79
2021/09/04 12:17:53;;;;;;;;;;;;;;;22.43;28.88;97995.28;5001207;28;1911;-79
2021/09/04 12:20:19;;;;;;;;;;;;;;;22.24;29.04;98006.38;4984849;28;1239;-79
2021/09/04 12:22:45;;;;;;;;;;;;;;;22.28;28.93;98007.06;5018940;28;1354;-79
2021/09/04 12:25:23;;;;;;;;;;;;;;;22.46;28.50;98017.06;5021677;28;913;-79
2021/09/04 12:27:48;;;;;;;;;;;;;;;22.39;28.85;98011.63;5004008;28;807;-79
2021/09/04 12:30:14;;;;;;;;;;;;;;;22.48;28.26;98014.56;5021228;28;714;-79
2021/09/04 12:32:39;;;;;;;;;;;;;;;22.34;28.75;98016.59;4989899;28;1413;-79
2021/09/04 12:35:06;;;;;;;;;;;;;;;22.27;28.76;98008.28;5001487;28;954;-78
2021/09/04 12:37:33;;;;;;;;;;;;;;;22.27;28.69;97999.78;4984917;28;1899;-79
2021/09/04 12:40:11;;;;;;;;;;;;;;;22.34;28.66;97993.91;5001478;28;790;-79
2021/09/04 12:42:39;;;;;;;;;;;;;;;22.28;28.85;97998.56;5010765;28;1343;-77
2021/09/04 12:45:20;;;;;;;;;;;;;;;22.24;28.64;97983.69;4989041;28;1466;-76
2021/09/04 12:47:51;;;;;;;;;;;;;;;22.17;28.86;97981.03;4986198;28;1258;-79
2021/09/04 12:50:23;;;;;;;;;;;;;;;22.35;28.84;97980.53;5001376;28;920;-79
2021/09/04 12:53:07;;;;;;;;;;;;;;;22.32;28.79;97976.53;4999759;28;945;-79
2021/09/04 12:55:48;;;;;;;;;;;;;;;22.32;28.79;97973.72;5003150;28;1402;-76
2021/09/04 12:58:13;;;;;;;;;;;;;;;22.30;28.81;97959.22;5020206;28;1973;-79
2021/09/04 13:00:39;;;;;;;;;;;;;;;22.24;28.70;97966.69;5020812;28;1350;-79